Weather at Terminal Y.P.F. Heliport

Public forecast

Using degrees Celsius for public forecast. Weather courtesy of forecast.io.

Closest aviation weather report (METAR) to Terminal Y.P.F. Heliport

Closest report is Minister Pistarini International Airport, 5.5 nm (10.2 km) SSE.

2024/05/24 19:00 (retrieved 28 minutes ago)

SAEZ 241900Z 21011KT 9999 BKN048 10/M01 Q1025 NOSIG

Closest aviation forecast (TAF) to Terminal Y.P.F. Heliport

Closest forecast is Minister Pistarini International Airport, 5.5 nm (10.2 km) SSE.

2024/05/24 18:01 (retrieved 1 hour ago)

TAF SAEZ 241700Z 2418/2518 19010G20KT 9999 SCT030 SCT050 TX11/2418Z TNM01/2509Z BECMG 2421/2500 18005KT CAVOK BECMG 2515/2518 9999 SCT030 SCT050